sensor_id;sensor_type;location;lat;lon;timestamp;pressure;altitude;pressure_sealevel;temperature;humidity
57628;BME280;43451;49.060;10.616;2023-03-14T00:01:19;95135.81;;;7.81;100.00
57628;BME280;43451;49.060;10.616;2023-03-14T00:03:49;95140.75;;;7.86;100.00
57628;BME280;43451;49.060;10.616;2023-03-14T00:06:15;95143.56;;;7.79;100.00
57628;BME280;43451;49.060;10.616;2023-03-14T00:08:42;95177.56;;;7.80;100.00
57628;BME280;43451;49.060;10.616;2023-03-14T00:11:10;95199.66;;;7.75;100.00
57628;BME280;43451;49.060;10.616;2023-03-14T00:13:37;95213.53;;;7.77;100.00
57628;BME280;43451;49.060;10.616;2023-03-14T00:16:08;95212.41;;;7.75;100.00
57628;BME280;43451;49.060;10.616;2023-03-14T00:18:34;95225.50;;;7.76;100.00
57628;BME280;43451;49.060;10.616;2023-03-14T00:21:01;95231.63;;;7.80;100.00
57628;BME280;43451;49.060;10.616;2023-03-14T00:23:31;95228.13;;;7.83;100.00
57628;BME280;43451;49.060;10.616;2023-03-14T00:26:02;95238.56;;;7.81;100.00
57628;BME280;43451;49.060;10.616;2023-03-14T00:28:28;95252.53;;;7.76;100.00
57628;BME280;43451;49.060;10.616;2023-03-14T00:30:54;95231.63;;;7.80;100.00
57628;BME280;43451;49.060;10.616;2023-03-14T00:33:20;95242.47;;;7.77;100.00
57628;BME280;43451;49.060;10.616;2023-03-14T00:35:57;95231.66;;;7.77;100.00
57628;BME280;43451;49.060;10.616;2023-03-14T00:38:24;95233.97;;;7.78;100.00
57628;BME280;43451;49.060;10.616;2023-03-14T00:40:51;95159.09;;;7.75;100.00
57628;BME280;43451;49.060;10.616;2023-03-14T00:43:17;95166.84;;;7.73;100.00
57628;BME280;43451;49.060;10.616;2023-03-14T00:45:43;95179.22;;;7.74;100.00
57628;BME280;43451;49.060;10.616;2023-03-14T00:48:08;95170.59;;;7.79;100.00
57628;BME280;43451;49.060;10.616;2023-03-14T00:50:33;95151.34;;;7.77;100.00
57628;BME280;43451;49.060;10.616;2023-03-14T00:52:59;95131.25;;;7.78;100.00
57628;BME280;43451;49.060;10.616;2023-03-14T00:55:24;95133.94;;;7.78;100.00
57628;BME280;43451;49.060;10.616;2023-03-14T00:57:50;95120.31;;;7.85;100.00
57628;BME280;43451;49.060;10.616;2023-03-14T01:00:16;95097.78;;;7.92;100.00
57628;BME280;43451;49.060;10.616;2023-03-14T01:02:41;95067.63;;;7.94;100.00
57628;BME280;43451;49.060;10.616;2023-03-14T01:05:07;95012.09;;;7.89;100.00
57628;BME280;43451;49.060;10.616;2023-03-14T01:07:35;95017.56;;;7.85;100.00
57628;BME280;43451;49.060;10.616;2023-03-14T01:10:01;95032.56;;;7.90;100.00
57628;BME280;43451;49.060;10.616;2023-03-14T01:12:27;95041.97;;;8.02;100.00
57628;BME280;43451;49.060;10.616;2023-03-14T01:14:52;95008.00;;;8.01;100.00
57628;BME280;43451;49.060;10.616;2023-03-14T01:17:18;94989.22;;;7.94;100.00
57628;BME280;43451;49.060;10.616;2023-03-14T01:19:43;94944.09;;;7.90;100.00
57628;BME280;43451;49.060;10.616;2023-03-14T01:22:09;94949.44;;;7.94;100.00
57628;BME280;43451;49.060;10.616;2023-03-14T01:24:34;94988.03;;;7.95;100.00
57628;BME280;43451;49.060;10.616;2023-03-14T01:27:01;95012.16;;;7.85;100.00
57628;BME280;43451;49.060;10.616;2023-03-14T01:29:27;95045.41;;;7.62;100.00
57628;BME280;43451;49.060;10.616;2023-03-14T01:31:52;95053.81;;;7.44;100.00
57628;BME280;43451;49.060;10.616;2023-03-14T01:34:18;95082.47;;;7.38;100.00
57628;BME280;43451;49.060;10.616;2023-03-14T01:36:43;95093.41;;;7.55;100.00
57628;BME280;43451;49.060;10.616;2023-03-14T01:39:08;95095.75;;;7.53;100.00
57628;BME280;43451;49.060;10.616;2023-03-14T01:41:34;95098.34;;;7.60;100.00
57628;BME280;43451;49.060;10.616;2023-03-14T01:44:00;95095.28;;;7.58;100.00
57628;BME280;43451;49.060;10.616;2023-03-14T01:48:58;95075.19;;;7.59;100.00
57628;BME280;43451;49.060;10.616;2023-03-14T01:54:02;95073.06;;;7.70;100.00
57628;BME280;43451;49.060;10.616;2023-03-14T01:56:31;95052.03;;;7.81;100.00
57628;BME280;43451;49.060;10.616;2023-03-14T01:58:58;95041.00;;;7.92;100.00
57628;BME280;43451;49.060;10.616;2023-03-14T02:01:26;95039.19;;;7.85;100.00
57628;BME280;43451;49.060;10.616;2023-03-14T02:03:57;95036.41;;;7.89;100.00
57628;BME280;43451;49.060;10.616;2023-03-14T02:06:27;95025.69;;;7.85;100.00
57628;BME280;43451;49.060;10.616;2023-03-14T02:08:54;95023.13;;;7.78;100.00
57628;BME280;43451;49.060;10.616;2023-03-14T02:11:20;95025.47;;;7.76;100.00
57628;BME280;43451;49.060;10.616;2023-03-14T02:13:48;95030.75;;;7.83;100.00
57628;BME280;43451;49.060;10.616;2023-03-14T02:16:13;95025.91;;;7.95;100.00
57628;BME280;43451;49.060;10.616;2023-03-14T02:18:39;95016.06;;;7.84;100.00
57628;BME280;43451;49.060;10.616;2023-03-14T02:21:22;95011.47;;;7.81;100.00
57628;BME280;43451;49.060;10.616;2023-03-14T02:24:13;95002.59;;;7.81;100.00
57628;BME280;43451;49.060;10.616;2023-03-14T02:27:02;94995.53;;;7.87;100.00
57628;BME280;43451;49.060;10.616;2023-03-14T02:29:29;94993.53;;;7.71;100.00
57628;BME280;43451;49.060;10.616;2023-03-14T02:31:56;94986.78;;;7.79;100.00
57628;BME280;43451;49.060;10.616;2023-03-14T02:34:22;94987.50;;;7.83;100.00
57628;BME280;43451;49.060;10.616;2023-03-14T02:36:49;94979.72;;;7.65;100.00
57628;BME280;43451;49.060;10.616;2023-03-14T02:39:24;94990.69;;;7.78;100.00
57628;BME280;43451;49.060;10.616;2023-03-14T02:41:52;94982.22;;;7.76;100.00
57628;BME280;43451;49.060;10.616;2023-03-14T02:44:17;94969.19;;;7.71;100.00
57628;BME280;43451;49.060;10.616;2023-03-14T02:46:42;94972.38;;;7.66;100.00
57628;BME280;43451;49.060;10.616;2023-03-14T02:49:10;94981.25;;;7.66;100.00
57628;BME280;43451;49.060;10.616;2023-03-14T02:51:38;94982.97;;;7.77;100.00
57628;BME280;43451;49.060;10.616;2023-03-14T02:54:33;94975.16;;;7.82;100.00
57628;BME280;43451;49.060;10.616;2023-03-14T02:56:58;94982.09;;;7.83;100.00
57628;BME280;43451;49.060;10.616;2023-03-14T02:59:24;94980.56;;;7.82;100.00
57628;BME280;43451;49.060;10.616;2023-03-14T03:01:49;94979.25;;;7.90;100.00
57628;BME280;43451;49.060;10.616;2023-03-14T03:04:14;94981.25;;;7.86;100.00
57628;BME280;43451;49.060;10.616;2023-03-14T03:06:40;94971.28;;;7.83;100.00
57628;BME280;43451;49.060;10.616;2023-03-14T03:09:05;94962.38;;;7.83;100.00
57628;BME280;43451;49.060;10.616;2023-03-14T03:11:31;94961.31;;;7.80;100.00
57628;BME280;43451;49.060;10.616;2023-03-14T03:13:56;94942.72;;;7.82;100.00
57628;BME280;43451;49.060;10.616;2023-03-14T03:16:22;94938.13;;;7.79;100.00
57628;BME280;43451;49.060;10.616;2023-03-14T03:18:47;94942.25;;;7.67;100.00
57628;BME280;43451;49.060;10.616;2023-03-14T03:21:13;94946.19;;;7.63;100.00
57628;BME280;43451;49.060;10.616;2023-03-14T03:23:38;94954.72;;;7.61;100.00
57628;BME280;43451;49.060;10.616;2023-03-14T03:26:04;94962.41;;;7.63;100.00
57628;BME280;43451;49.060;10.616;2023-03-14T03:28:29;94963.16;;;7.63;100.00
57628;BME280;43451;49.060;10.616;2023-03-14T03:30:55;94962.75;;;7.65;100.00
57628;BME280;43451;49.060;10.616;2023-03-14T03:33:20;94960.13;;;7.61;100.00
57628;BME280;43451;49.060;10.616;2023-03-14T03:35:50;94964.63;;;7.68;100.00
57628;BME280;43451;49.060;10.616;2023-03-14T03:38:16;94952.28;;;7.67;100.00
57628;BME280;43451;49.060;10.616;2023-03-14T03:40:42;94944.66;;;7.62;100.00
57628;BME280;43451;49.060;10.616;2023-03-14T03:43:08;94947.69;;;7.64;100.00
57628;BME280;43451;49.060;10.616;2023-03-14T03:45:34;94948.19;;;7.59;100.00
57628;BME280;43451;49.060;10.616;2023-03-14T03:47:59;94942.94;;;7.52;100.00
57628;BME280;43451;49.060;10.616;2023-03-14T03:50:24;94936.34;;;7.53;100.00
57628;BME280;43451;49.060;10.616;2023-03-14T03:52:50;94932.44;;;7.54;100.00
57628;BME280;43451;49.060;10.616;2023-03-14T03:55:15;94930.72;;;7.63;100.00
57628;BME280;43451;49.060;10.616;2023-03-14T03:57:41;94926.66;;;7.55;100.00
57628;BME280;43451;49.060;10.616;2023-03-14T04:00:07;94924.69;;;7.56;100.00
57628;BME280;43451;49.060;10.616;2023-03-14T04:02:34;94923.72;;;7.46;100.00
57628;BME280;43451;49.060;10.616;2023-03-14T04:04:59;94931.09;;;7.46;100.00
57628;BME280;43451;49.060;10.616;2023-03-14T04:07:25;94924.78;;;7.52;100.00
57628;BME280;43451;49.060;10.616;2023-03-14T04:09:50;94930.78;;;7.60;100.00
57628;BME280;43451;49.060;10.616;2023-03-14T04:12:16;94916.25;;;7.54;100.00
57628;BME280;43451;49.060;10.616;2023-03-14T04:14:41;94903.50;;;7.34;100.00
57628;BME280;43451;49.060;10.616;2023-03-14T04:17:07;94916.47;;;7.43;100.00
57628;BME280;43451;49.060;10.616;2023-03-14T04:19:33;94914.91;;;7.42;100.00
57628;BME280;43451;49.060;10.616;2023-03-14T04:21:58;94916.09;;;7.41;100.00
57628;BME280;43451;49.060;10.616;2023-03-14T04:24:23;94927.50;;;7.29;100.00
57628;BME280;43451;49.060;10.616;2023-03-14T04:26:49;94924.34;;;7.34;100.00
57628;BME280;43451;49.060;10.616;2023-03-14T04:29:14;94920.66;;;7.44;100.00
57628;BME280;43451;49.060;10.616;2023-03-14T04:31:40;94915.47;;;7.33;100.00
57628;BME280;43451;49.060;10.616;2023-03-14T04:34:05;94937.69;;;7.21;100.00
57628;BME280;43451;49.060;10.616;2023-03-14T04:36:31;94928.63;;;7.31;100.00
57628;BME280;43451;49.060;10.616;2023-03-14T04:38:56;94931.19;;;7.38;100.00
57628;BME280;43451;49.060;10.616;2023-03-14T04:41:21;94925.09;;;7.34;100.00
57628;BME280;43451;49.060;10.616;2023-03-14T04:43:47;94920.13;;;7.33;100.00
57628;BME280;43451;49.060;10.616;2023-03-14T04:46:13;94915.94;;;7.28;100.00
57628;BME280;43451;49.060;10.616;2023-03-14T04:48:38;94922.00;;;7.36;100.00
57628;BME280;43451;49.060;10.616;2023-03-14T04:51:04;94917.81;;;7.31;100.00
57628;BME280;43451;49.060;10.616;2023-03-14T04:53:32;94929.00;;;7.33;100.00
57628;BME280;43451;49.060;10.616;2023-03-14T04:55:59;94914.66;;;7.36;100.00
57628;BME280;43451;49.060;10.616;2023-03-14T04:58:24;94915.56;;;7.30;100.00
57628;BME280;43451;49.060;10.616;2023-03-14T05:00:50;94912.88;;;7.26;100.00
57628;BME280;43451;49.060;10.616;2023-03-14T05:03:17;94907.84;;;7.28;100.00
57628;BME280;43451;49.060;10.616;2023-03-14T05:05:42;94918.59;;;7.32;100.00
57628;BME280;43451;49.060;10.616;2023-03-14T05:08:08;94916.31;;;7.30;100.00
57628;BME280;43451;49.060;10.616;2023-03-14T05:10:34;94904.47;;;7.24;100.00
57628;BME280;43451;49.060;10.616;2023-03-14T05:12:59;94909.09;;;7.24;100.00
57628;BME280;43451;49.060;10.616;2023-03-14T05:15:25;94906.47;;;7.20;100.00
57628;BME280;43451;49.060;10.616;2023-03-14T05:17:50;94901.34;;;7.26;100.00
57628;BME280;43451;49.060;10.616;2023-03-14T05:20:16;94897.59;;;7.19;100.00
57628;BME280;43451;49.060;10.616;2023-03-14T05:22:42;94891.25;;;7.30;100.00
57628;BME280;43451;49.060;10.616;2023-03-14T05:25:08;94887.06;;;7.25;100.00
57628;BME280;43451;49.060;10.616;2023-03-14T05:27:34;94883.75;;;7.17;100.00
57628;BME280;43451;49.060;10.616;2023-03-14T05:30:02;94880.75;;;7.12;100.00
57628;BME280;43451;49.060;10.616;2023-03-14T05:32:28;94883.31;;;7.19;100.00
57628;BME280;43451;49.060;10.616;2023-03-14T05:34:55;94880.56;;;7.22;100.00
57628;BME280;43451;49.060;10.616;2023-03-14T05:37:26;94881.34;;;7.23;100.00
57628;BME280;43451;49.060;10.616;2023-03-14T05:39:52;94883.69;;;7.21;100.00
57628;BME280;43451;49.060;10.616;2023-03-14T05:42:18;94879.03;;;7.21;100.00
57628;BME280;43451;49.060;10.616;2023-03-14T05:44:43;94877.78;;;7.06;100.00
57628;BME280;43451;49.060;10.616;2023-03-14T05:47:09;94877.69;;;7.10;100.00
57628;BME280;43451;49.060;10.616;2023-03-14T05:49:34;94871.97;;;7.08;100.00
57628;BME280;43451;49.060;10.616;2023-03-14T05:52:00;94872.19;;;7.17;100.00
57628;BME280;43451;49.060;10.616;2023-03-14T05:54:25;94877.22;;;7.15;100.00
57628;BME280;43451;49.060;10.616;2023-03-14T05:56:51;94877.63;;;7.13;100.00
57628;BME280;43451;49.060;10.616;2023-03-14T05:59:16;94870.31;;;7.14;100.00
57628;BME280;43451;49.060;10.616;2023-03-14T06:01:42;94869.53;;;7.13;100.00
57628;BME280;43451;49.060;10.616;2023-03-14T06:04:07;94869.34;;;7.24;100.00
57628;BME280;43451;49.060;10.616;2023-03-14T06:06:32;94860.56;;;7.20;100.00
57628;BME280;43451;49.060;10.616;2023-03-14T06:08:58;94869.81;;;7.19;100.00
57628;BME280;43451;49.060;10.616;2023-03-14T06:11:23;94864.91;;;7.14;100.00
57628;BME280;43451;49.060;10.616;2023-03-14T06:13:49;94860.19;;;7.18;100.00
57628;BME280;43451;49.060;10.616;2023-03-14T06:16:14;94860.59;;;7.16;100.00
57628;BME280;43451;49.060;10.616;2023-03-14T06:18:40;94853.19;;;7.01;100.00
57628;BME280;43451;49.060;10.616;2023-03-14T06:21:05;94850.91;;;7.19;100.00
57628;BME280;43451;49.060;10.616;2023-03-14T06:23:31;94852.84;;;7.18;100.00
57628;BME280;43451;49.060;10.616;2023-03-14T06:25:57;94861.66;;;7.22;100.00
57628;BME280;43451;49.060;10.616;2023-03-14T06:28:22;94851.28;;;7.21;100.00
57628;BME280;43451;49.060;10.616;2023-03-14T06:30:48;94855.91;;;7.20;100.00
57628;BME280;43451;49.060;10.616;2023-03-14T06:33:13;94852.09;;;7.18;100.00
57628;BME280;43451;49.060;10.616;2023-03-14T06:35:39;94864.09;;;7.17;100.00
57628;BME280;43451;49.060;10.616;2023-03-14T06:38:04;94861.31;;;7.20;100.00
57628;BME280;43451;49.060;10.616;2023-03-14T06:40:30;94844.84;;;7.15;100.00
57628;BME280;43451;49.060;10.616;2023-03-14T06:42:55;94838.81;;;7.27;100.00
57628;BME280;43451;49.060;10.616;2023-03-14T06:45:20;94845.25;;;7.33;100.00
57628;BME280;43451;49.060;10.616;2023-03-14T06:47:46;94839.13;;;7.29;100.00
57628;BME280;43451;49.060;10.616;2023-03-14T06:50:11;94848.06;;;7.26;100.00
57628;BME280;43451;49.060;10.616;2023-03-14T06:52:37;94843.72;;;7.32;100.00
57628;BME280;43451;49.060;10.616;2023-03-14T06:55:02;94841.56;;;7.43;100.00
57628;BME280;43451;49.060;10.616;2023-03-14T06:57:28;94838.63;;;7.54;100.00
57628;BME280;43451;49.060;10.616;2023-03-14T06:59:54;94848.97;;;7.59;100.00
57628;BME280;43451;49.060;10.616;2023-03-14T07:02:19;94853.41;;;7.50;100.00
57628;BME280;43451;49.060;10.616;2023-03-14T07:04:45;94856.78;;;7.54;100.00
57628;BME280;43451;49.060;10.616;2023-03-14T07:07:11;94861.28;;;7.60;100.00
57628;BME280;43451;49.060;10.616;2023-03-14T07:09:36;94863.72;;;7.55;100.00
57628;BME280;43451;49.060;10.616;2023-03-14T07:12:02;94868.25;;;7.61;100.00
57628;BME280;43451;49.060;10.616;2023-03-14T07:14:29;94862.59;;;7.72;100.00
57628;BME280;43451;49.060;10.616;2023-03-14T07:16:54;94864.19;;;7.70;100.00
57628;BME280;43451;49.060;10.616;2023-03-14T07:22:30;94876.31;;;7.81;100.00
57628;BME280;43451;49.060;10.616;2023-03-14T07:24:55;94879.22;;;7.90;100.00
57628;BME280;43451;49.060;10.616;2023-03-14T07:27:20;94868.41;;;7.90;100.00
57628;BME280;43451;49.060;10.616;2023-03-14T07:29:46;94882.50;;;7.98;100.00
57628;BME280;43451;49.060;10.616;2023-03-14T07:32:11;94888.19;;;8.04;100.00
57628;BME280;43451;49.060;10.616;2023-03-14T07:34:40;94896.13;;;7.95;100.00
57628;BME280;43451;49.060;10.616;2023-03-14T07:37:05;94903.97;;;8.05;100.00
57628;BME280;43451;49.060;10.616;2023-03-14T07:39:30;94907.47;;;8.06;100.00
57628;BME280;43451;49.060;10.616;2023-03-14T07:42:03;94902.38;;;8.08;100.00
57628;BME280;43451;49.060;10.616;2023-03-14T07:44:29;94891.28;;;8.02;100.00
57628;BME280;43451;49.060;10.616;2023-03-14T07:46:54;94916.22;;;7.94;100.00
57628;BME280;43451;49.060;10.616;2023-03-14T07:49:19;94904.56;;;7.97;100.00
57628;BME280;43451;49.060;10.616;2023-03-14T07:51:47;94908.63;;;8.05;100.00
57628;BME280;43451;49.060;10.616;2023-03-14T07:54:13;94902.13;;;8.02;100.00
57628;BME280;43451;49.060;10.616;2023-03-14T07:56:38;94901.88;;;7.97;100.00
57628;BME280;43451;49.060;10.616;2023-03-14T07:59:04;94895.75;;;8.12;100.00
57628;BME280;43451;49.060;10.616;2023-03-14T08:01:29;94896.25;;;8.24;100.00
57628;BME280;43451;49.060;10.616;2023-03-14T08:03:54;94889.66;;;8.25;100.00
57628;BME280;43451;49.060;10.616;2023-03-14T08:06:20;94888.66;;;8.35;100.00
57628;BME280;43451;49.060;10.616;2023-03-14T08:08:46;94887.94;;;8.51;100.00
57628;BME280;43451;49.060;10.616;2023-03-14T08:11:11;94889.78;;;8.54;100.00
57628;BME280;43451;49.060;10.616;2023-03-14T08:13:37;94874.72;;;8.53;100.00
57628;BME280;43451;49.060;10.616;2023-03-14T08:16:04;94888.50;;;8.58;100.00
57628;BME280;43451;49.060;10.616;2023-03-14T08:18:30;94886.91;;;8.61;100.00
57628;BME280;43451;49.060;10.616;2023-03-14T08:20:55;94888.19;;;8.73;100.00
57628;BME280;43451;49.060;10.616;2023-03-14T08:23:21;94887.16;;;8.83;100.00
57628;BME280;43451;49.060;10.616;2023-03-14T08:25:49;94867.41;;;8.99;100.00
57628;BME280;43451;49.060;10.616;2023-03-14T08:28:15;94878.56;;;9.17;100.00
57628;BME280;43451;49.060;10.616;2023-03-14T08:30:41;94863.44;;;9.33;100.00
57628;BME280;43451;49.060;10.616;2023-03-14T08:33:06;94865.59;;;9.38;100.00
57628;BME280;43451;49.060;10.616;2023-03-14T08:35:31;94867.69;;;9.46;100.00
57628;BME280;43451;49.060;10.616;2023-03-14T08:37:57;94872.56;;;9.39;100.00
57628;BME280;43451;49.060;10.616;2023-03-14T08:40:22;94862.63;;;9.48;100.00
57628;BME280;43451;49.060;10.616;2023-03-14T08:42:48;94873.06;;;9.63;100.00
57628;BME280;43451;49.060;10.616;2023-03-14T08:45:15;94868.09;;;9.74;100.00
57628;BME280;43451;49.060;10.616;2023-03-14T08:47:46;94874.19;;;9.78;100.00
57628;BME280;43451;49.060;10.616;2023-03-14T08:50:12;94867.31;;;9.73;100.00
57628;BME280;43451;49.060;10.616;2023-03-14T08:52:38;94865.81;;;9.85;100.00
57628;BME280;43451;49.060;10.616;2023-03-14T08:55:07;94861.81;;;9.90;100.00
57628;BME280;43451;49.060;10.616;2023-03-14T08:57:33;94859.00;;;9.81;100.00
57628;BME280;43451;49.060;10.616;2023-03-14T08:59:58;94862.88;;;9.80;100.00
57628;BME280;43451;49.060;10.616;2023-03-14T09:02:25;94848.56;;;9.92;100.00
57628;BME280;43451;49.060;10.616;2023-03-14T09:04:50;94851.44;;;10.27;100.00
57628;BME280;43451;49.060;10.616;2023-03-14T09:07:16;94859.69;;;10.36;100.00
57628;BME280;43451;49.060;10.616;2023-03-14T09:09:42;94859.03;;;10.32;100.00
57628;BME280;43451;49.060;10.616;2023-03-14T09:12:07;94855.13;;;10.33;100.00
57628;BME280;43451;49.060;10.616;2023-03-14T09:14:33;94846.66;;;10.43;100.00
57628;BME280;43451;49.060;10.616;2023-03-14T09:16:59;94853.47;;;10.61;100.00
57628;BME280;43451;49.060;10.616;2023-03-14T09:19:24;94851.84;;;10.63;100.00
57628;BME280;43451;49.060;10.616;2023-03-14T09:21:50;94847.91;;;10.64;100.00
57628;BME280;43451;49.060;10.616;2023-03-14T09:24:16;94834.13;;;10.59;100.00
57628;BME280;43451;49.060;10.616;2023-03-14T09:26:42;94853.34;;;10.64;100.00
57628;BME280;43451;49.060;10.616;2023-03-14T09:29:08;94856.09;;;10.52;100.00
57628;BME280;43451;49.060;10.616;2023-03-14T09:31:33;94854.88;;;10.53;100.00
57628;BME280;43451;49.060;10.616;2023-03-14T09:33:59;94859.56;;;10.39;100.00
57628;BME280;43451;49.060;10.616;2023-03-14T09:36:24;94860.53;;;10.58;100.00
57628;BME280;43451;49.060;10.616;2023-03-14T09:38:50;94860.75;;;10.51;100.00
57628;BME280;43451;49.060;10.616;2023-03-14T09:41:16;94857.59;;;10.53;100.00
57628;BME280;43451;49.060;10.616;2023-03-14T09:43:44;94861.16;;;10.62;100.00
57628;BME280;43451;49.060;10.616;2023-03-14T09:46:12;94849.31;;;10.82;100.00
57628;BME280;43451;49.060;10.616;2023-03-14T09:48:39;94847.97;;;10.86;100.00
57628;BME280;43451;49.060;10.616;2023-03-14T09:51:12;94855.91;;;10.81;100.00
57628;BME280;43451;49.060;10.616;2023-03-14T09:53:42;94858.78;;;10.64;100.00
57628;BME280;43451;49.060;10.616;2023-03-14T09:56:29;94848.16;;;10.57;100.00
57628;BME280;43451;49.060;10.616;2023-03-14T09:59:00;94852.31;;;10.84;100.00
57628;BME280;43451;49.060;10.616;2023-03-14T10:01:31;94851.53;;;10.96;100.00
57628;BME280;43451;49.060;10.616;2023-03-14T10:04:01;94853.03;;;10.97;100.00
57628;BME280;43451;49.060;10.616;2023-03-14T10:06:30;94847.47;;;10.79;100.00
57628;BME280;43451;49.060;10.616;2023-03-14T10:08:55;94841.97;;;10.57;100.00
57628;BME280;43451;49.060;10.616;2023-03-14T10:11:22;94841.63;;;10.55;100.00
57628;BME280;43451;49.060;10.616;2023-03-14T10:14:05;94850.00;;;10.48;100.00
57628;BME280;43451;49.060;10.616;2023-03-14T10:16:37;94839.84;;;10.74;100.00
57628;BME280;43451;49.060;10.616;2023-03-14T10:19:05;94843.78;;;10.73;100.00
57628;BME280;43451;49.060;10.616;2023-03-14T10:21:38;94849.94;;;10.86;98.08
57628;BME280;43451;49.060;10.616;2023-03-14T10:26:42;94837.88;;;10.87;91.50
57628;BME280;43451;49.060;10.616;2023-03-14T10:29:11;94834.56;;;10.70;96.75
57628;BME280;43451;49.060;10.616;2023-03-14T10:31:59;94829.69;;;10.52;95.28
57628;BME280;43451;49.060;10.616;2023-03-14T10:34:34;94848.28;;;10.15;100.00
57628;BME280;43451;49.060;10.616;2023-03-14T10:37:22;94846.63;;;10.05;100.00
57628;BME280;43451;49.060;10.616;2023-03-14T10:39:52;94837.41;;;9.90;100.00
57628;BME280;43451;49.060;10.616;2023-03-14T10:42:23;94851.31;;;10.05;100.00
57628;BME280;43451;49.060;10.616;2023-03-14T10:44:55;94855.13;;;10.33;100.00
57628;BME280;43451;49.060;10.616;2023-03-14T10:47:23;94859.25;;;10.50;100.00
57628;BME280;43451;49.060;10.616;2023-03-14T10:49:49;94847.50;;;10.53;100.00
57628;BME280;43451;49.060;10.616;2023-03-14T10:52:25;94841.59;;;10.67;100.00
57628;BME280;43451;49.060;10.616;2023-03-14T10:55:00;94841.25;;;11.13;98.81
57628;BME280;43451;49.060;10.616;2023-03-14T10:57:26;94834.59;;;10.92;97.81
57628;BME280;43451;49.060;10.616;2023-03-14T10:59:53;94836.41;;;10.60;100.00
57628;BME280;43451;49.060;10.616;2023-03-14T11:05:15;94824.59;;;10.89;100.00
57628;BME280;43451;49.060;10.616;2023-03-14T11:07:44;94829.44;;;11.07;99.70
57628;BME280;43451;49.060;10.616;2023-03-14T11:10:26;94836.09;;;10.93;100.00
57628;BME280;43451;49.060;10.616;2023-03-14T11:28:39;94831.31;;;10.97;96.21
57628;BME280;43451;49.060;10.616;2023-03-14T11:31:14;94830.53;;;10.97;93.97
57628;BME280;43451;49.060;10.616;2023-03-14T11:36:29;94822.22;;;10.91;96.77
57628;BME280;43451;49.060;10.616;2023-03-14T11:38:57;94824.69;;;10.98;98.87
57628;BME280;43451;49.060;10.616;2023-03-14T11:41:27;94817.56;;;11.13;95.24
57628;BME280;43451;49.060;10.616;2023-03-14T11:43:57;94806.31;;;11.46;98.63
57628;BME280;43451;49.060;10.616;2023-03-14T11:46:29;94793.66;;;11.83;93.96
57628;BME280;43451;49.060;10.616;2023-03-14T11:51:46;94796.00;;;11.94;93.11
57628;BME280;43451;49.060;10.616;2023-03-14T11:54:18;94798.38;;;12.32;85.58
57628;BME280;43451;49.060;10.616;2023-03-14T11:56:58;94797.22;;;11.93;89.40
57628;BME280;43451;49.060;10.616;2023-03-14T11:59:29;94802.03;;;11.98;87.90
57628;BME280;43451;49.060;10.616;2023-03-14T12:02:04;94815.34;;;12.37;83.67
57628;BME280;43451;49.060;10.616;2023-03-14T12:07:34;94808.97;;;11.15;95.44
57628;BME280;43451;49.060;10.616;2023-03-14T12:10:03;94809.84;;;11.34;91.72
57628;BME280;43451;49.060;10.616;2023-03-14T12:12:29;94803.09;;;11.38;91.82
57628;BME280;43451;49.060;10.616;2023-03-14T12:15:01;94804.91;;;10.98;93.05
57628;BME280;43451;49.060;10.616;2023-03-14T12:17:52;94826.38;;;10.83;94.95
57628;BME280;43451;49.060;10.616;2023-03-14T12:20:21;94802.34;;;10.81;97.28
57628;BME280;43451;49.060;10.616;2023-03-14T12:22:55;94844.34;;;11.02;93.89
57628;BME280;43451;49.060;10.616;2023-03-14T12:25:24;94827.84;;;11.19;93.03
57628;BME280;43451;49.060;10.616;2023-03-14T12:30:34;94844.72;;;10.91;94.31
57628;BME280;43451;49.060;10.616;2023-03-14T12:35:49;94872.50;;;10.48;94.93
57628;BME280;43451;49.060;10.616;2023-03-14T12:46:20;94887.59;;;10.36;100.00
57628;BME280;43451;49.060;10.616;2023-03-14T12:49:04;94888.97;;;10.15;100.00
57628;BME280;43451;49.060;10.616;2023-03-14T12:51:39;94898.84;;;10.09;100.00
57628;BME280;43451;49.060;10.616;2023-03-14T12:54:13;94911.00;;;10.17;100.00
57628;BME280;43451;49.060;10.616;2023-03-14T13:01:53;94900.25;;;10.01;100.00
57628;BME280;43451;49.060;10.616;2023-03-14T13:04:19;94912.88;;;9.37;100.00
57628;BME280;43451;49.060;10.616;2023-03-14T13:06:59;94919.22;;;9.01;100.00
57628;BME280;43451;49.060;10.616;2023-03-14T13:12:09;94912.03;;;8.78;100.00
57628;BME280;43451;49.060;10.616;2023-03-14T13:14:40;94917.88;;;8.76;100.00
57628;BME280;43451;49.060;10.616;2023-03-14T13:17:13;94909.31;;;8.78;100.00
57628;BME280;43451;49.060;10.616;2023-03-14T13:19:39;94915.34;;;8.69;100.00
57628;BME280;43451;49.060;10.616;2023-03-14T13:22:16;94914.16;;;8.70;100.00
57628;BME280;43451;49.060;10.616;2023-03-14T13:24:44;94913.81;;;9.01;100.00
57628;BME280;43451;49.060;10.616;2023-03-14T13:27:20;94919.28;;;8.97;100.00
57628;BME280;43451;49.060;10.616;2023-03-14T13:29:49;94929.63;;;9.02;100.00
57628;BME280;43451;49.060;10.616;2023-03-14T13:32:26;94928.84;;;9.02;100.00
57628;BME280;43451;49.060;10.616;2023-03-14T13:34:56;94930.06;;;9.01;100.00
57628;BME280;43451;49.060;10.616;2023-03-14T13:37:24;94941.88;;;8.91;100.00
57628;BME280;43451;49.060;10.616;2023-03-14T13:39:52;94948.16;;;8.88;100.00
57628;BME280;43451;49.060;10.616;2023-03-14T13:42:18;94950.72;;;8.95;100.00
57628;BME280;43451;49.060;10.616;2023-03-14T13:44:44;94963.47;;;8.62;100.00
57628;BME280;43451;49.060;10.616;2023-03-14T13:47:18;94954.00;;;8.70;100.00
57628;BME280;43451;49.060;10.616;2023-03-14T13:49:45;94966.94;;;8.78;100.00